Time;durP1;ratioP1;P1;durP2;ratioP2;P2;SDS_P1;SDS_P2;PMS_P1;PMS_P2;Temp;Humidity;BMP_temperature;BMP_pressure;BME280_temperature;BME280_humidity;BME280_pressure;Samples;Min_cycle;Max_cycle;Signal;HPM_P1;HPM_P2
2024/01/14 17:57:33;;;;;;;11.50;8.27;;;13.30;94.70;;;;;;3707926;19;7454772;-78
2024/01/14 17:59:11;;;;;;;13.90;8.47;;;13.30;94.70;;;;;;4588611;19;20007;-78
2024/01/14 18:00:58;;;;;;;12.33;8.53;;;13.30;94.80;;;;;;4589388;19;20138;-77
2024/01/14 18:02:32;;;;;;;11.80;8.60;;;13.30;94.80;;;;;;4588685;19;20018;-76
2024/01/14 18:04:10;;;;;;;10.53;6.90;;;13.30;94.80;;;;;;4589171;19;20006;-78
2024/01/14 18:05:46;;;;;;;11.83;8.27;;;13.20;94.80;;;;;;4592117;19;20014;-78
2024/01/14 18:07:20;;;;;;;11.67;8.90;;;13.30;94.80;;;;;;4591980;19;20010;-78
2024/01/14 18:08:55;;;;;;;12.53;8.10;;;13.30;94.80;;;;;;4593104;19;20014;-78
2024/01/14 18:10:31;;;;;;;10.47;7.70;;;13.20;94.90;;;;;;4593330;19;20407;-78
2024/01/14 18:12:07;;;;;;;13.73;12.23;;;13.20;94.90;;;;;;4593126;19;20018;-78
2024/01/14 18:13:45;;;;;;;10.77;9.33;;;13.20;95.00;;;;;;4592834;19;20521;-78
2024/01/14 18:15:22;;;;;;;11.33;8.00;;;13.20;95.00;;;;;;4593041;19;20014;-79
2024/01/14 18:16:57;;;;;;;20.87;13.10;;;13.20;95.00;;;;;;4592467;19;20011;-79
2024/01/14 18:18:35;;;;;;;12.93;9.40;;;13.20;95.00;;;;;;4591202;19;20003;-79
2024/01/14 18:20:10;;;;;;;11.20;7.73;;;13.20;95.00;;;;;;4593060;19;20445;-79
2024/01/14 18:21:45;;;;;;;12.30;8.17;;;13.20;95.10;;;;;;4592853;19;20035;-79
2024/01/14 18:23:20;;;;;;;12.10;8.37;;;13.20;95.10;;;;;;4592897;19;20076;-77
2024/01/14 18:24:54;;;;;;;10.70;8.00;;;13.20;95.10;;;;;;4592771;19;20002;-77
2024/01/14 18:26:31;;;;;;;13.93;8.57;;;13.10;95.10;;;;;;4592783;19;20477;-77
2024/01/14 18:28:10;;;;;;;11.77;8.83;;;13.20;95.10;;;;;;4592642;19;20015;-78
2024/01/14 18:29:47;;;;;;;12.87;8.30;;;13.20;95.10;;;;;;4592970;19;20023;-76
2024/01/14 18:31:21;;;;;;;14.13;8.90;;;13.10;95.10;;;;;;4592731;19;20007;-78
2024/01/14 18:32:56;;;;;;;18.47;12.53;;;13.20;95.20;;;;;;4592503;19;20026;-78
2024/01/14 18:34:33;;;;;;;13.07;8.23;;;13.10;95.20;;;;;;4592945;19;20010;-78
2024/01/14 18:36:09;;;;;;;9.30;6.13;;;13.20;95.20;;;;;;4592828;19;20468;-77
2024/01/14 18:37:47;;;;;;;10.97;8.10;;;13.20;95.20;;;;;;4591853;19;20022;-77
2024/01/14 18:39:21;;;;;;;15.80;10.03;;;13.20;95.20;;;;;;4592816;19;20002;-76
2024/01/14 18:40:55;;;;;;;16.30;10.37;;;13.20;95.20;;;;;;4592494;19;20011;-76
2024/01/14 18:42:40;;;;;;;11.53;7.27;;;13.30;95.20;;;;;;4592591;19;20010;-76
2024/01/14 18:44:24;;;;;;;11.37;7.60;;;13.30;95.10;;;;;;4592141;19;20449;-77
2024/01/14 18:46:00;;;;;;;12.53;7.97;;;13.30;95.10;;;;;;4592744;19;20044;-76
2024/01/14 18:47:35;;;;;;;14.10;8.77;;;13.30;95.10;;;;;;4592763;19;20023;-78
2024/01/14 18:49:09;;;;;;;12.27;7.63;;;13.30;95.10;;;;;;4594687;19;20330;-78
2024/01/14 18:50:44;;;;;;;11.67;7.00;;;13.30;95.10;;;;;;4593593;19;19998;-77
2024/01/14 18:52:19;;;;;;;11.53;6.27;;;13.30;95.00;;;;;;4594510;19;20009;-74
2024/01/14 18:53:53;;;;;;;11.93;7.80;;;13.30;95.10;;;;;;4593252;19;20010;-75
2024/01/14 18:55:30;;;;;;;18.17;10.00;;;13.40;95.10;;;;;;4593019;19;20039;-75
2024/01/14 18:57:05;;;;;;;10.60;7.43;;;13.40;95.10;;;;;;4592114;19;20351;-75
2024/01/14 18:58:40;;;;;;;12.07;7.83;;;13.40;95.10;;;;;;4592659;19;20074;-75
2024/01/14 19:00:16;;;;;;;10.53;7.50;;;13.40;95.00;;;;;;4594523;19;20006;-75
2024/01/14 19:01:57;;;;;;;10.60;7.00;;;13.40;95.00;;;;;;4594466;19;20006;-75
2024/01/14 19:03:32;;;;;;;14.87;8.37;;;13.40;95.00;;;;;;4593342;19;20007;-75
2024/01/14 19:05:13;;;;;;;11.27;6.75;;;13.40;95.10;;;;;;4592173;19;20011;-75
2024/01/14 19:06:47;;;;;;;24.40;12.47;;;13.40;95.00;;;;;;4591176;19;20007;-75
2024/01/14 19:08:22;;;;;;;14.37;8.53;;;13.40;95.00;;;;;;4593661;19;20017;-74
2024/01/14 19:10:08;;;;;;;13.83;7.77;;;13.40;95.00;;;;;;4594284;19;20007;-74
2024/01/14 19:11:49;;;;;;;12.80;7.30;;;13.40;95.00;;;;;;4593220;19;20074;-74
2024/01/14 19:13:27;;;;;;;20.30;10.17;;;13.40;95.00;;;;;;4592563;19;20014;-75
2024/01/14 19:15:03;;;;;;;11.43;6.73;;;13.40;95.10;;;;;;4594009;19;20022;-74
2024/01/14 19:16:36;;;;;;;13.70;7.50;;;13.40;95.00;;;;;;4593677;19;20033;-76
2024/01/14 19:18:13;;;;;;;9.90;6.50;;;13.40;95.00;;;;;;4593142;19;20030;-74
2024/01/14 19:19:47;;;;;;;11.67;7.70;;;13.40;94.90;;;;;;4592940;19;20006;-74
2024/01/14 19:21:22;;;;;;;9.37;6.30;;;13.40;95.00;;;;;;4591911;19;20425;-74
2024/01/14 19:22:58;;;;;;;11.50;7.07;;;13.40;94.90;;;;;;4593390;19;20020;-74
2024/01/14 19:24:34;;;;;;;11.70;7.03;;;13.40;94.90;;;;;;4593944;19;19999;-74
2024/01/14 19:26:09;;;;;;;13.50;8.03;;;13.40;94.90;;;;;;4594242;19;20017;-75
2024/01/14 19:27:47;;;;;;;13.17;8.57;;;13.40;94.90;;;;;;4593913;19;20003;-74
2024/01/14 19:29:22;;;;;;;14.67;8.60;;;13.40;94.90;;;;;;4592772;19;20009;-74
2024/01/14 19:30:57;;;;;;;18.87;11.50;;;13.40;94.80;;;;;;4592246;19;20477;-75
2024/01/14 19:32:35;;;;;;;15.27;8.93;;;13.30;94.80;;;;;;4593540;19;20029;-74
2024/01/14 19:34:11;;;;;;;13.70;7.43;;;13.30;94.80;;;;;;4592324;19;20002;-74
2024/01/14 19:35:47;;;;;;;14.93;8.93;;;13.30;95.00;;;;;;4591237;19;20295;-74
2024/01/14 19:37:26;;;;;;;10.90;6.80;;;13.30;94.80;;;;;;4592430;19;20014;-75
2024/01/14 19:39:01;;;;;;;13.57;7.77;;;13.30;94.90;;;;;;4593706;19;20298;-74
2024/01/14 19:40:35;;;;;;;14.57;8.43;;;13.30;94.80;;;;;;4591922;19;20438;-74
2024/01/14 19:42:12;;;;;;;12.87;8.30;;;13.20;94.80;;;;;;4593161;19;20014;-75
2024/01/14 19:43:50;;;;;;;12.17;7.83;;;13.20;94.80;;;;;;4593501;19;20007;-75
2024/01/14 19:45:25;;;;;;;12.30;7.53;;;13.20;94.80;;;;;;4593489;19;20005;-77
2024/01/14 19:47:03;;;;;;;13.57;8.50;;;13.20;94.80;;;;;;4591258;19;20006;-75
2024/01/14 19:48:40;;;;;;;10.07;6.57;;;13.20;94.80;;;;;;4591325;19;20437;-75
2024/01/14 19:50:13;;;;;;;13.63;7.80;;;13.20;94.80;;;;;;4593078;19;20003;-75
2024/01/14 19:51:48;;;;;;;12.33;7.70;;;13.20;94.80;;;;;;4594142;19;20003;-74
2024/01/14 19:53:23;;;;;;;13.80;8.10;;;13.20;94.80;;;;;;4593300;19;20023;-75
2024/01/14 19:54:57;;;;;;;11.60;6.70;;;13.20;94.80;;;;;;4593366;19;20022;-75
2024/01/14 19:56:38;;;;;;;11.67;7.03;;;13.20;94.80;;;;;;4592700;19;20429;-75
2024/01/14 19:58:13;;;;;;;12.02;6.97;;;13.20;94.70;;;;;;4591235;19;19995;-75
2024/01/14 19:59:48;;;;;;;14.97;8.17;;;13.20;94.70;;;;;;4592829;19;20010;-75
2024/01/14 20:01:24;;;;;;;14.00;7.60;;;13.10;94.70;;;;;;4592201;19;20036;-77
2024/01/14 20:02:58;;;;;;;25.20;14.13;;;13.10;94.80;;;;;;4593106;19;20044;-75
2024/01/14 20:04:33;;;;;;;13.73;6.53;;;13.10;94.80;;;;;;4593100;19;20482;-75
2024/01/14 20:06:10;;;;;;;9.27;5.80;;;13.10;94.70;;;;;;4593456;19;20090;-76
2024/01/14 20:07:50;;;;;;;69.47;35.30;;;13.10;94.80;;;;;;4593091;19;20013;-75
2024/01/14 20:09:26;;;;;;;28.17;14.80;;;13.10;94.80;;;;;;4591967;19;20007;-75
2024/01/14 20:11:06;;;;;;;17.07;9.53;;;13.10;94.80;;;;;;4591967;19;20397;-76
2024/01/14 20:12:42;;;;;;;34.97;14.87;;;13.10;94.70;;;;;;4592745;19;20013;-76
2024/01/14 20:14:17;;;;;;;34.07;12.90;;;13.10;94.80;;;;;;4592858;19;20023;-77
2024/01/14 20:15:55;;;;;;;25.47;11.90;;;13.10;94.70;;;;;;4591484;19;20333;-76
2024/01/14 20:17:29;;;;;;;57.50;24.03;;;13.20;94.70;;;;;;4589593;19;20014;-76
2024/01/14 20:19:04;;;;;;;53.70;22.80;;;13.20;94.70;;;;;;4590227;19;20046;-76
2024/01/14 20:20:40;;;;;;;27.83;11.73;;;13.30;94.70;;;;;;4591354;19;20010;-76
2024/01/14 20:22:16;;;;;;;36.23;13.30;;;13.40;94.50;;;;;;4592672;19;20002;-78
2024/01/14 20:23:51;;;;;;;18.93;9.07;;;13.50;94.40;;;;;;4592707;19;20007;-76
2024/01/14 20:25:28;;;;;;;21.07;9.63;;;13.60;94.30;;;;;;4593037;19;20432;-76
2024/01/14 20:27:03;;;;;;;21.77;9.73;;;13.70;94.20;;;;;;4591931;19;20009;-76
2024/01/14 20:28:40;;;;;;;19.53;9.80;;;13.70;94.00;;;;;;4591747;19;20002;-77
2024/01/14 20:30:16;;;;;;;27.70;12.53;;;13.80;94.00;;;;;;4591013;19;20346;-76
2024/01/14 20:31:50;;;;;;;15.73;7.87;;;13.80;93.80;;;;;;4592331;19;20354;-76
2024/01/14 20:33:26;;;;;;;14.23;7.00;;;13.90;93.70;;;;;;4592495;19;20010;-76
2024/01/14 20:35:11;;;;;;;10.13;5.90;;;13.90;93.70;;;;;;4592492;19;20006;-75
2024/01/14 20:36:48;;;;;;;15.20;8.77;;;13.90;93.60;;;;;;4592239;19;20090;-76
2024/01/14 20:38:22;;;;;;;17.27;9.83;;;13.90;93.60;;;;;;4591700;19;20007;-76
2024/01/14 20:39:58;;;;;;;15.50;7.53;;;14.00;93.50;;;;;;4592494;19;20026;-76
2024/01/14 20:41:33;;;;;;;18.03;9.57;;;14.00;93.50;;;;;;4592272;19;20014;-76
2024/01/14 20:43:07;;;;;;;29.93;22.27;;;14.00;93.40;;;;;;4592577;19;20006;-76
2024/01/14 20:44:45;;;;;;;24.00;20.63;;;14.00;93.40;;;;;;4592487;19;20009;-77
2024/01/14 20:46:21;;;;;;;19.07;13.30;;;13.90;93.30;;;;;;4591634;19;20017;-76
2024/01/14 20:47:55;;;;;;;14.10;8.30;;;14.00;93.30;;;;;;4591021;19;20446;-76
2024/01/14 20:49:31;;;;;;;39.65;18.48;;;14.00;93.30;;;;;;4591837;19;20006;-75
2024/01/14 20:51:06;;;;;;;21.97;12.07;;;14.00;93.30;;;;;;4592336;19;20002;-77
2024/01/14 20:52:39;;;;;;;24.40;13.13;;;14.00;93.30;;;;;;4591008;19;20016;-75
2024/01/14 20:54:18;;;;;;;26.77;15.53;;;14.00;93.20;;;;;;4591851;19;20006;-78
2024/01/14 20:55:53;;;;;;;29.97;17.27;;;14.00;93.20;;;;;;4589702;19;20002;-75
2024/01/14 20:57:27;;;;;;;19.50;11.37;;;14.00;93.20;;;;;;4589046;19;20469;-76
2024/01/14 20:59:03;;;;;;;28.33;12.50;;;14.00;93.20;;;;;;4590622;19;20015;-75
2024/01/14 21:00:37;;;;;;;18.77;10.37;;;14.00;93.20;;;;;;4591876;19;20021;-75
2024/01/14 21:02:11;;;;;;;13.95;7.78;;;14.10;93.10;;;;;;4591875;19;19999;-76
2024/01/14 21:03:51;;;;;;;20.63;10.93;;;14.10;93.00;;;;;;4590862;19;20022;-76
2024/01/14 21:05:25;;;;;;;18.35;9.52;;;14.10;93.00;;;;;;4590556;19;20007;-76
2024/01/14 21:06:59;;;;;;;22.40;12.00;;;14.10;92.90;;;;;;4589895;19;20010;-76
2024/01/14 21:08:35;;;;;;;45.03;22.30;;;14.10;92.90;;;;;;4591823;19;20308;-75
2024/01/14 21:10:10;;;;;;;18.50;9.80;;;14.10;92.90;;;;;;4591846;19;20248;-76
2024/01/14 21:11:44;;;;;;;25.20;10.38;;;14.10;92.80;;;;;;4590355;19;20073;-76
2024/01/14 21:13:20;;;;;;;19.90;11.87;;;14.10;92.90;;;;;;4592127;19;20007;-75
2024/01/14 21:14:54;;;;;;;14.53;9.47;;;14.10;92.80;;;;;;4590326;19;20465;-76
2024/01/14 21:16:34;;;;;;;21.10;11.98;;;14.10;92.80;;;;;;4590963;19;20091;-76
2024/01/14 21:18:25;;;;;;;25.30;13.10;;;14.10;92.80;;;;;;4590767;19;20457;-75
2024/01/14 21:19:59;;;;;;;22.08;11.73;;;14.10;92.80;;;;;;4591642;19;20041;-75
2024/01/14 21:21:34;;;;;;;18.17;10.80;;;14.10;92.80;;;;;;4591581;19;20025;-75
2024/01/14 21:23:08;;;;;;;16.67;10.10;;;14.00;92.80;;;;;;4591642;19;20002;-75
2024/01/14 21:24:42;;;;;;;14.17;8.13;;;14.10;92.80;;;;;;4591490;19;20006;-76
2024/01/14 21:26:18;;;;;;;11.57;6.70;;;14.00;92.80;;;;;;4591339;19;20002;-76
2024/01/14 21:27:57;;;;;;;11.68;6.75;;;14.00;92.80;;;;;;4591405;19;20002;-76
2024/01/14 21:29:32;;;;;;;10.73;5.77;;;14.10;92.80;;;;;;4590402;19;20006;-75
2024/01/14 21:31:07;;;;;;;14.03;6.77;;;14.00;92.70;;;;;;4591548;19;20005;-76
2024/01/14 21:32:41;;;;;;;13.10;6.03;;;14.00;92.70;;;;;;4591411;19;20073;-75
2024/01/14 21:34:18;;;;;;;11.02;6.28;;;14.00;92.80;;;;;;4591230;19;20458;-76
2024/01/14 21:35:53;;;;;;;20.17;9.70;;;14.00;92.80;;;;;;4591402;19;20006;-76
2024/01/14 21:37:27;;;;;;;14.90;7.38;;;14.00;92.80;;;;;;4589966;19;20022;-76
2024/01/14 21:39:01;;;;;;;8.60;5.03;;;14.00;92.80;;;;;;4591246;19;19999;-75
2024/01/14 21:40:37;;;;;;;24.80;13.57;;;14.00;92.80;;;;;;4594344;19;20007;-76
2024/01/14 21:42:11;;;;;;;11.13;6.00;;;14.00;92.90;;;;;;4595929;19;20002;-76
2024/01/14 21:43:45;;;;;;;13.33;6.03;;;13.90;92.90;;;;;;4595847;19;20295;-77
2024/01/14 21:45:20;;;;;;;14.30;7.47;;;13.90;93.00;;;;;;4596046;19;20450;-75
2024/01/14 21:46:54;;;;;;;17.90;8.68;;;13.90;93.20;;;;;;4593539;19;20002;-75
2024/01/14 21:48:28;;;;;;;8.97;5.07;;;13.90;93.20;;;;;;4595659;19;20021;-76
2024/01/14 21:50:05;;;;;;;14.83;7.03;;;13.90;93.30;;;;;;4595868;19;19998;-76
2024/01/14 21:51:40;;;;;;;9.30;5.10;;;13.90;93.40;;;;;;4595765;19;20026;-76
2024/01/14 21:53:14;;;;;;;10.10;5.23;;;13.90;93.40;;;;;;4594428;19;20010;-76
2024/01/14 21:54:49;;;;;;;10.07;6.43;;;13.90;93.40;;;;;;4594186;19;20010;-76
2024/01/14 21:56:25;;;;;;;9.98;6.30;;;13.90;93.40;;;;;;4594763;19;20002;-75
2024/01/14 21:57:59;;;;;;;11.50;6.80;;;13.90;93.40;;;;;;4594843;19;20002;-76
2024/01/14 21:59:34;;;;;;;11.07;5.47;;;13.90;93.40;;;;;;4596042;19;20010;-75
2024/01/14 22:01:09;;;;;;;10.20;5.80;;;13.90;93.50;;;;;;4594151;19;20006;-76
2024/01/14 22:02:43;;;;;;;8.67;6.07;;;13.90;93.50;;;;;;4595399;19;19999;-76
2024/01/14 22:04:19;;;;;;;13.40;8.10;;;13.90;93.50;;;;;;4595533;19;20007;-76
2024/01/14 22:05:55;;;;;;;11.43;6.87;;;13.90;93.50;;;;;;4595376;19;20310;-75
2024/01/14 22:07:30;;;;;;;12.03;7.40;;;13.90;93.60;;;;;;4594252;19;20006;-76
2024/01/14 22:09:05;;;;;;;9.77;6.20;;;13.90;93.50;;;;;;4595708;19;20006;-76
2024/01/14 22:10:39;;;;;;;8.70;5.50;;;13.90;93.60;;;;;;4595337;19;20005;-76
2024/01/14 22:12:13;;;;;;;10.63;7.20;;;13.80;93.60;;;;;;4595271;19;19999;-76
2024/01/14 22:13:49;;;;;;;10.63;7.17;;;13.80;93.60;;;;;;4595374;19;20082;-75
2024/01/14 22:15:23;;;;;;;9.63;6.43;;;13.80;93.60;;;;;;4595222;19;20032;-75
2024/01/14 22:16:58;;;;;;;8.67;6.03;;;13.80;93.60;;;;;;4594569;19;20006;-76
2024/01/14 22:18:34;;;;;;;9.57;5.80;;;13.90;93.60;;;;;;4593849;19;20010;-76
2024/01/14 22:20:09;;;;;;;9.93;6.60;;;13.80;93.60;;;;;;4595162;19;20005;-75
2024/01/14 22:21:44;;;;;;;10.70;6.70;;;13.80;93.60;;;;;;4595332;19;20062;-76
2024/01/14 22:23:20;;;;;;;7.87;5.40;;;13.80;93.70;;;;;;4595169;19;20029;-75
2024/01/14 22:24:55;;;;;;;9.70;6.17;;;13.80;93.70;;;;;;4595018;19;20026;-76
2024/01/14 22:26:30;;;;;;;11.17;6.87;;;13.80;93.70;;;;;;4594521;19;20110;-76
2024/01/14 22:28:06;;;;;;;8.83;5.83;;;13.80;93.70;;;;;;4594920;19;20011;-75
2024/01/14 22:29:40;;;;;;;6.63;5.00;;;13.80;93.80;;;;;;4595206;19;20425;-76
2024/01/14 22:31:14;;;;;;;8.30;5.63;;;13.80;93.80;;;;;;4593482;19;20092;-75
2024/01/14 22:32:51;;;;;;;10.80;5.80;;;13.80;93.80;;;;;;4594641;19;20062;-76
2024/01/14 22:34:25;;;;;;;7.27;5.00;;;13.80;93.80;;;;;;4595008;19;20376;-75
2024/01/14 22:36:00;;;;;;;8.67;5.53;;;13.80;93.80;;;;;;4594991;19;20090;-76
2024/01/14 22:37:36;;;;;;;10.73;6.33;;;13.80;93.80;;;;;;4593362;19;20011;-76
2024/01/14 22:39:10;;;;;;;8.93;5.90;;;13.80;93.80;;;;;;4594926;19;20007;-75
2024/01/14 22:40:44;;;;;;;8.57;6.10;;;13.80;93.80;;;;;;4594780;19;20007;-76
2024/01/14 22:42:20;;;;;;;9.20;5.50;;;13.80;93.90;;;;;;4594852;19;20101;-75
2024/01/14 22:43:55;;;;;;;12.00;6.20;;;13.80;93.90;;;;;;4595109;19;20001;-76
2024/01/14 22:45:29;;;;;;;9.43;6.23;;;13.80;93.90;;;;;;4594830;19;20007;-75
2024/01/14 22:47:05;;;;;;;7.87;5.60;;;13.80;94.00;;;;;;4593813;19;20474;-76
2024/01/14 22:48:41;;;;;;;25.73;12.70;;;13.70;94.00;;;;;;4594941;19;20482;-75
2024/01/14 22:50:15;;;;;;;16.63;9.97;;;13.70;94.10;;;;;;4594678;19;19998;-75
2024/01/14 22:51:51;;;;;;;11.30;7.15;;;13.70;94.20;;;;;;4594003;19;20065;-75
2024/01/14 22:53:25;;;;;;;13.10;7.10;;;13.70;94.30;;;;;;4594667;19;20368;-75
2024/01/14 22:55:00;;;;;;;8.67;6.33;;;13.70;94.40;;;;;;4594584;19;20006;-75
2024/01/14 22:56:36;;;;;;;10.40;6.37;;;13.70;94.50;;;;;;4593881;19;20010;-75
2024/01/14 22:58:10;;;;;;;9.90;7.20;;;13.60;94.50;;;;;;4594038;19;20433;-76
2024/01/14 22:59:44;;;;;;;10.10;7.30;;;13.60;94.50;;;;;;4594541;19;20034;-75
2024/01/14 23:01:20;;;;;;;8.60;6.17;;;13.60;94.50;;;;;;4594775;19;20007;-75
2024/01/14 23:02:55;;;;;;;9.90;6.47;;;13.60;94.50;;;;;;4594388;19;20038;-75
2024/01/14 23:04:30;;;;;;;10.53;7.77;;;13.60;94.50;;;;;;4593286;19;20026;-75
2024/01/14 23:06:05;;;;;;;12.93;9.40;;;13.60;94.60;;;;;;4594356;19;20020;-76
2024/01/14 23:07:39;;;;;;;11.57;7.63;;;13.60;94.60;;;;;;4593119;19;20005;-75
2024/01/14 23:09:13;;;;;;;9.33;6.67;;;13.50;94.60;;;;;;4593229;19;20003;-76
2024/01/14 23:10:49;;;;;;;10.53;7.00;;;13.50;94.60;;;;;;4594026;19;20020;-77
2024/01/14 23:12:22;;;;;;;8.57;6.40;;;13.50;94.70;;;;;;4593283;19;20062;-77
2024/01/14 23:13:56;;;;;;;13.40;8.77;;;13.50;94.70;;;;;;4593837;19;20426;-78
2024/01/14 23:15:33;;;;;;;8.27;6.50;;;13.50;94.70;;;;;;4594477;19;20014;-78
2024/01/14 23:17:07;;;;;;;7.97;6.33;;;13.50;94.70;;;;;;4593515;19;20410;-77
2024/01/14 23:18:42;;;;;;;8.67;5.57;;;13.40;94.70;;;;;;4593102;19;20002;-78
2024/01/14 23:20:17;;;;;;;8.57;5.53;;;13.50;94.80;;;;;;4594154;19;20021;-77
2024/01/14 23:21:51;;;;;;;9.67;7.27;;;13.40;94.80;;;;;;4594068;19;20005;-78
2024/01/14 23:23:25;;;;;;;10.17;6.60;;;13.50;94.80;;;;;;4594031;19;20368;-77
2024/01/14 23:25:00;;;;;;;10.07;8.40;;;13.40;94.70;;;;;;4593883;19;20010;-78
2024/01/14 23:26:34;;;;;;;9.20;6.60;;;13.40;94.80;;;;;;4593509;19;20007;-78
2024/01/14 23:28:09;;;;;;;9.43;6.80;;;13.40;94.80;;;;;;4593816;19;20017;-78
2024/01/14 23:29:45;;;;;;;9.80;6.57;;;13.40;94.80;;;;;;4593888;19;20373;-77
2024/01/14 23:31:19;;;;;;;9.80;6.33;;;13.40;94.80;;;;;;4594105;19;20284;-77
2024/01/14 23:32:54;;;;;;;9.00;6.13;;;13.40;94.90;;;;;;4594127;19;20002;-78
2024/01/14 23:34:29;;;;;;;9.13;7.53;;;13.40;94.80;;;;;;4593934;19;20182;-78
2024/01/14 23:36:03;;;;;;;18.83;11.90;;;13.40;94.80;;;;;;4593768;19;20002;-76
2024/01/14 23:37:37;;;;;;;12.83;7.43;;;13.40;94.80;;;;;;4591045;19;20015;-77
2024/01/14 23:39:13;;;;;;;8.67;7.20;;;13.40;94.80;;;;;;4593454;19;20006;-77
2024/01/14 23:40:46;;;;;;;7.00;6.17;;;13.40;95.10;;;;;;4593946;19;20026;-78
2024/01/14 23:42:21;;;;;;;10.93;7.00;;;13.40;94.80;;;;;;4593935;19;20069;-77
2024/01/14 23:43:57;;;;;;;10.60;7.67;;;13.30;94.80;;;;;;4593570;19;20006;-78
2024/01/14 23:45:32;;;;;;;11.20;8.50;;;13.30;94.90;;;;;;4593774;19;20010;-77
2024/01/14 23:47:06;;;;;;;10.13;6.57;;;13.30;94.80;;;;;;4592719;19;20026;-78
2024/01/14 23:48:41;;;;;;;8.17;5.80;;;13.30;94.80;;;;;;4593410;19;20015;-77
2024/01/14 23:50:16;;;;;;;8.30;6.63;;;13.30;94.80;;;;;;4593514;19;20007;-78
2024/01/14 23:51:50;;;;;;;10.20;7.20;;;13.30;94.80;;;;;;4593690;19;20003;-77
2024/01/14 23:53:25;;;;;;;10.30;7.53;;;13.30;94.80;;;;;;4593373;19;20006;-77
2024/01/14 23:54:59;;;;;;;11.07;8.20;;;13.30;94.80;;;;;;4593619;19;20527;-77
2024/01/14 23:56:36;;;;;;;7.80;6.50;;;13.30;94.70;;;;;;4592576;19;20353;-78
2024/01/14 23:58:12;;;;;;;11.23;7.20;;;13.30;94.70;;;;;;4592681;19;20006;-78
2024/01/14 23:59:46;;;;;;;7.97;7.17;;;13.30;94.70;;;;;;4593563;19;20026;-78
